sensor_id;sensor_type;location;lat;lon;timestamp;pressure;altitude;pressure_sealevel;temperature;humidity
72689;BME280;61053;52.166;4.506;2022-09-19T00:01:31;101916.16;;;12.78;62.90
72689;BME280;61053;52.166;4.506;2022-09-19T00:04:02;101916.84;;;12.67;63.17
72689;BME280;61053;52.166;4.506;2022-09-19T00:06:36;101914.16;;;12.67;63.03
72689;BME280;61053;52.166;4.506;2022-09-19T00:09:06;101908.81;;;12.67;61.74
72689;BME280;61053;52.166;4.506;2022-09-19T00:11:34;101920.94;;;12.58;61.63
72689;BME280;61053;52.166;4.506;2022-09-19T00:14:03;101916.28;;;12.62;60.73
72689;BME280;61053;52.166;4.506;2022-09-19T00:16:32;101925.81;;;12.52;62.19
72689;BME280;61053;52.166;4.506;2022-09-19T00:19:01;101915.00;;;12.67;60.65
72689;BME280;61053;52.166;4.506;2022-09-19T00:21:32;101930.03;;;12.56;62.05
72689;BME280;61053;52.166;4.506;2022-09-19T00:23:59;101916.72;;;12.54;61.72
72689;BME280;61053;52.166;4.506;2022-09-19T00:26:47;101926.28;;;12.44;63.05
72689;BME280;61053;52.166;4.506;2022-09-19T00:29:16;101920.06;;;12.29;64.38
72689;BME280;61053;52.166;4.506;2022-09-19T00:31:44;101934.81;;;12.36;65.12
72689;BME280;61053;52.166;4.506;2022-09-19T00:34:14;101925.16;;;12.62;65.20
72689;BME280;61053;52.166;4.506;2022-09-19T00:36:43;101925.75;;;12.82;64.77
72689;BME280;61053;52.166;4.506;2022-09-19T00:39:11;101929.19;;;12.55;66.51
72689;BME280;61053;52.166;4.506;2022-09-19T00:41:38;101930.53;;;12.77;66.56
72689;BME280;61053;52.166;4.506;2022-09-19T00:47:00;101927.66;;;12.80;67.07
72689;BME280;61053;52.166;4.506;2022-09-19T00:49:32;101932.25;;;13.06;65.65
72689;BME280;61053;52.166;4.506;2022-09-19T00:52:05;101930.72;;;13.02;66.39
72689;BME280;61053;52.166;4.506;2022-09-19T00:54:38;101917.31;;;13.02;65.70
72689;BME280;61053;52.166;4.506;2022-09-19T00:57:09;101930.97;;;13.12;65.31
72689;BME280;61053;52.166;4.506;2022-09-19T00:59:41;101930.59;;;13.33;63.54
72689;BME280;61053;52.166;4.506;2022-09-19T01:02:11;101925.53;;;13.14;63.85
72689;BME280;61053;52.166;4.506;2022-09-19T01:04:40;101935.38;;;13.13;62.94
72689;BME280;61053;52.166;4.506;2022-09-19T01:10:28;101924.69;;;13.27;60.95
72689;BME280;61053;52.166;4.506;2022-09-19T01:16:29;101925.69;;;13.25;59.82
72689;BME280;61053;52.166;4.506;2022-09-19T01:22:42;101931.28;;;12.93;60.56
72689;BME280;61053;52.166;4.506;2022-09-19T01:26:32;101933.41;;;12.74;60.80
72689;BME280;61053;52.166;4.506;2022-09-19T01:29:01;101938.09;;;12.70;60.58
72689;BME280;61053;52.166;4.506;2022-09-19T01:31:34;101939.72;;;12.73;60.80
72689;BME280;61053;52.166;4.506;2022-09-19T01:36:48;101934.63;;;12.68;60.86
72689;BME280;61053;52.166;4.506;2022-09-19T01:39:24;101934.63;;;12.54;61.36
72689;BME280;61053;52.166;4.506;2022-09-19T01:41:53;101936.44;;;12.53;61.41
72689;BME280;61053;52.166;4.506;2022-09-19T01:44:23;101940.06;;;12.52;60.89
72689;BME280;61053;52.166;4.506;2022-09-19T01:50:18;101946.66;;;12.32;63.47
72689;BME280;61053;52.166;4.506;2022-09-19T01:59:08;101945.31;;;12.39;61.99
72689;BME280;61053;52.166;4.506;2022-09-19T02:01:49;101949.56;;;12.43;62.73
72689;BME280;61053;52.166;4.506;2022-09-19T02:04:49;101949.84;;;12.53;62.46
72689;BME280;61053;52.166;4.506;2022-09-19T02:07:49;101959.44;;;12.57;61.48
72689;BME280;61053;52.166;4.506;2022-09-19T02:10:32;101953.59;;;12.65;61.73
72689;BME280;61053;52.166;4.506;2022-09-19T02:13:23;101945.06;;;12.87;61.32
72689;BME280;61053;52.166;4.506;2022-09-19T02:15:59;101945.94;;;12.73;62.38
72689;BME280;61053;52.166;4.506;2022-09-19T02:18:52;101954.44;;;12.94;61.21
72689;BME280;61053;52.166;4.506;2022-09-19T02:21:33;101955.72;;;12.88;61.85
72689;BME280;61053;52.166;4.506;2022-09-19T02:24:08;101948.81;;;12.99;63.25
72689;BME280;61053;52.166;4.506;2022-09-19T02:26:41;101953.31;;;12.84;64.21
72689;BME280;61053;52.166;4.506;2022-09-19T02:29:13;101952.47;;;12.83;63.87
72689;BME280;61053;52.166;4.506;2022-09-19T02:31:45;101958.19;;;12.92;64.79
72689;BME280;61053;52.166;4.506;2022-09-19T02:34:11;101951.47;;;12.99;63.96
72689;BME280;61053;52.166;4.506;2022-09-19T02:36:48;101952.81;;;13.20;62.87
72689;BME280;61053;52.166;4.506;2022-09-19T02:39:26;101951.59;;;13.12;64.61
72689;BME280;61053;52.166;4.506;2022-09-19T02:45:04;101950.63;;;13.13;63.14
72689;BME280;61053;52.166;4.506;2022-09-19T02:47:43;101955.44;;;12.93;64.25
72689;BME280;61053;52.166;4.506;2022-09-19T02:53:17;101956.69;;;13.02;65.09
72689;BME280;61053;52.166;4.506;2022-09-19T02:55:52;101958.75;;;12.82;64.71
72689;BME280;61053;52.166;4.506;2022-09-19T02:58:21;101953.22;;;12.85;64.58
72689;BME280;61053;52.166;4.506;2022-09-19T03:00:53;101954.00;;;13.02;64.34
72689;BME280;61053;52.166;4.506;2022-09-19T03:03:34;101952.19;;;12.74;64.76
72689;BME280;61053;52.166;4.506;2022-09-19T03:06:29;101952.91;;;12.76;64.01
72689;BME280;61053;52.166;4.506;2022-09-19T03:09:09;101959.34;;;12.87;63.86
72689;BME280;61053;52.166;4.506;2022-09-19T03:11:42;101954.94;;;12.72;64.10
72689;BME280;61053;52.166;4.506;2022-09-19T03:14:15;101943.38;;;12.72;63.47
72689;BME280;61053;52.166;4.506;2022-09-19T03:16:43;101946.13;;;12.70;63.62
72689;BME280;61053;52.166;4.506;2022-09-19T03:19:13;101937.31;;;12.68;63.74
72689;BME280;61053;52.166;4.506;2022-09-19T03:21:39;101947.25;;;12.66;64.84
72689;BME280;61053;52.166;4.506;2022-09-19T03:24:06;101947.94;;;12.70;62.84
72689;BME280;61053;52.166;4.506;2022-09-19T03:26:35;101960.38;;;12.56;63.54
72689;BME280;61053;52.166;4.506;2022-09-19T03:29:04;101962.41;;;12.67;62.66
72689;BME280;61053;52.166;4.506;2022-09-19T03:31:31;101955.41;;;12.64;63.50
72689;BME280;61053;52.166;4.506;2022-09-19T03:33:57;101964.31;;;12.51;64.84
72689;BME280;61053;52.166;4.506;2022-09-19T03:36:24;101960.16;;;12.59;63.50
72689;BME280;61053;52.166;4.506;2022-09-19T03:38:51;101961.91;;;12.60;63.51
72689;BME280;61053;52.166;4.506;2022-09-19T03:41:18;101963.47;;;12.79;63.24
72689;BME280;61053;52.166;4.506;2022-09-19T03:43:46;101964.59;;;12.75;63.41
72689;BME280;61053;52.166;4.506;2022-09-19T03:46:15;101965.56;;;12.74;63.81
72689;BME280;61053;52.166;4.506;2022-09-19T03:48:44;101964.59;;;12.60;64.38
72689;BME280;61053;52.166;4.506;2022-09-19T03:51:13;101965.44;;;12.46;64.30
72689;BME280;61053;52.166;4.506;2022-09-19T03:53:40;101972.44;;;12.63;63.97
72689;BME280;61053;52.166;4.506;2022-09-19T03:56:09;101973.84;;;12.55;65.44
72689;BME280;61053;52.166;4.506;2022-09-19T03:58:36;101970.38;;;12.38;66.15
72689;BME280;61053;52.166;4.506;2022-09-19T04:01:05;101975.47;;;12.43;64.97
72689;BME280;61053;52.166;4.506;2022-09-19T04:03:32;101970.03;;;12.44;65.74
72689;BME280;61053;52.166;4.506;2022-09-19T04:05:59;101980.19;;;12.54;66.26
72689;BME280;61053;52.166;4.506;2022-09-19T04:08:26;101980.25;;;12.52;64.38
72689;BME280;61053;52.166;4.506;2022-09-19T04:10:52;101975.41;;;12.73;63.29
72689;BME280;61053;52.166;4.506;2022-09-19T04:13:19;101985.38;;;12.71;63.95
72689;BME280;61053;52.166;4.506;2022-09-19T04:15:47;101983.16;;;12.63;63.89
72689;BME280;61053;52.166;4.506;2022-09-19T04:18:13;101987.94;;;12.58;64.69
72689;BME280;61053;52.166;4.506;2022-09-19T04:20:38;101986.03;;;12.60;65.20
72689;BME280;61053;52.166;4.506;2022-09-19T04:23:05;101984.78;;;12.66;64.54
72689;BME280;61053;52.166;4.506;2022-09-19T04:25:32;101993.59;;;12.68;65.13
72689;BME280;61053;52.166;4.506;2022-09-19T04:28:06;101992.03;;;12.50;64.94
72689;BME280;61053;52.166;4.506;2022-09-19T04:30:34;101989.66;;;12.59;65.16
72689;BME280;61053;52.166;4.506;2022-09-19T04:33:01;101992.19;;;12.77;65.17
72689;BME280;61053;52.166;4.506;2022-09-19T04:35:29;101996.75;;;12.60;66.49
72689;BME280;61053;52.166;4.506;2022-09-19T04:38:01;101992.53;;;12.56;67.11
72689;BME280;61053;52.166;4.506;2022-09-19T04:40:27;101994.28;;;12.72;65.86
72689;BME280;61053;52.166;4.506;2022-09-19T04:42:54;101993.25;;;12.74;66.30
72689;BME280;61053;52.166;4.506;2022-09-19T04:45:19;101997.25;;;12.67;66.09
72689;BME280;61053;52.166;4.506;2022-09-19T04:47:49;101994.09;;;12.75;67.17
72689;BME280;61053;52.166;4.506;2022-09-19T04:50:14;101998.03;;;12.83;67.52
72689;BME280;61053;52.166;4.506;2022-09-19T04:52:41;102000.53;;;13.01;66.18
72689;BME280;61053;52.166;4.506;2022-09-19T04:55:07;101999.66;;;12.86;66.17
72689;BME280;61053;52.166;4.506;2022-09-19T04:57:33;101994.50;;;12.97;66.83
72689;BME280;61053;52.166;4.506;2022-09-19T04:59:59;101994.09;;;13.03;65.45
72689;BME280;61053;52.166;4.506;2022-09-19T05:02:25;102001.28;;;13.17;64.69
72689;BME280;61053;52.166;4.506;2022-09-19T05:04:55;102000.44;;;13.02;64.75
72689;BME280;61053;52.166;4.506;2022-09-19T05:07:21;102006.47;;;13.06;64.80
72689;BME280;61053;52.166;4.506;2022-09-19T05:09:53;102004.38;;;13.11;64.96
72689;BME280;61053;52.166;4.506;2022-09-19T05:12:19;102009.25;;;13.19;63.11
72689;BME280;61053;52.166;4.506;2022-09-19T05:14:45;102007.78;;;13.13;63.25
72689;BME280;61053;52.166;4.506;2022-09-19T05:17:12;102011.94;;;12.90;65.41
72689;BME280;61053;52.166;4.506;2022-09-19T05:19:37;102014.63;;;13.19;63.51
72689;BME280;61053;52.166;4.506;2022-09-19T05:22:03;102010.03;;;13.21;62.91
72689;BME280;61053;52.166;4.506;2022-09-19T05:24:28;102014.91;;;13.14;63.74
72689;BME280;61053;52.166;4.506;2022-09-19T05:26:54;102014.41;;;13.07;63.65
72689;BME280;61053;52.166;4.506;2022-09-19T05:29:19;102015.56;;;13.18;62.56
72689;BME280;61053;52.166;4.506;2022-09-19T05:31:46;102023.03;;;13.13;63.45
72689;BME280;61053;52.166;4.506;2022-09-19T05:34:12;102017.78;;;13.25;62.49
72689;BME280;61053;52.166;4.506;2022-09-19T05:36:39;102025.94;;;13.38;61.38
72689;BME280;61053;52.166;4.506;2022-09-19T05:39:05;102027.47;;;13.14;62.02
72689;BME280;61053;52.166;4.506;2022-09-19T05:41:32;102029.09;;;13.16;62.61
72689;BME280;61053;52.166;4.506;2022-09-19T05:43:58;102026.63;;;13.27;62.28
72689;BME280;61053;52.166;4.506;2022-09-19T05:46:24;102029.38;;;13.12;63.12
72689;BME280;61053;52.166;4.506;2022-09-19T05:48:49;102039.69;;;13.18;61.72
72689;BME280;61053;52.166;4.506;2022-09-19T05:51:14;102035.53;;;13.28;62.01
72689;BME280;61053;52.166;4.506;2022-09-19T05:53:40;102042.78;;;13.12;62.06
72689;BME280;61053;52.166;4.506;2022-09-19T05:56:19;102036.25;;;13.16;62.74
72689;BME280;61053;52.166;4.506;2022-09-19T05:58:45;102036.66;;;13.24;62.79
72689;BME280;61053;52.166;4.506;2022-09-19T06:01:12;102043.38;;;13.31;63.03
72689;BME280;61053;52.166;4.506;2022-09-19T06:03:38;102041.16;;;13.09;64.19
72689;BME280;61053;52.166;4.506;2022-09-19T06:06:14;102053.88;;;13.20;64.28
72689;BME280;61053;52.166;4.506;2022-09-19T06:08:44;102046.78;;;12.90;66.14
72689;BME280;61053;52.166;4.506;2022-09-19T06:11:11;102056.19;;;13.12;65.05
72689;BME280;61053;52.166;4.506;2022-09-19T06:13:37;102045.41;;;13.27;64.44
72689;BME280;61053;52.166;4.506;2022-09-19T06:16:21;102050.53;;;13.16;64.93
72689;BME280;61053;52.166;4.506;2022-09-19T06:18:47;102054.44;;;13.10;65.50
72689;BME280;61053;52.166;4.506;2022-09-19T06:21:13;102056.47;;;12.93;65.01
72689;BME280;61053;52.166;4.506;2022-09-19T06:23:40;102059.53;;;13.01;65.11
72689;BME280;61053;52.166;4.506;2022-09-19T06:26:06;102063.00;;;13.17;64.54
72689;BME280;61053;52.166;4.506;2022-09-19T06:28:32;102069.19;;;13.03;65.74
72689;BME280;61053;52.166;4.506;2022-09-19T06:31:02;102074.13;;;13.25;65.25
72689;BME280;61053;52.166;4.506;2022-09-19T06:33:29;102075.66;;;13.29;65.45
72689;BME280;61053;52.166;4.506;2022-09-19T06:35:59;102071.31;;;13.27;65.21
72689;BME280;61053;52.166;4.506;2022-09-19T06:38:26;102076.72;;;13.41;65.32
72689;BME280;61053;52.166;4.506;2022-09-19T06:40:52;102075.78;;;13.42;66.34
72689;BME280;61053;52.166;4.506;2022-09-19T06:43:18;102075.19;;;13.51;65.70
72689;BME280;61053;52.166;4.506;2022-09-19T06:45:44;102077.69;;;13.40;66.79
72689;BME280;61053;52.166;4.506;2022-09-19T06:48:10;102082.34;;;13.80;64.91
72689;BME280;61053;52.166;4.506;2022-09-19T06:50:35;102084.91;;;13.96;65.43
72689;BME280;61053;52.166;4.506;2022-09-19T06:53:02;102085.34;;;14.02;65.04
72689;BME280;61053;52.166;4.506;2022-09-19T06:55:36;102081.97;;;14.13;63.45
72689;BME280;61053;52.166;4.506;2022-09-19T06:58:03;102084.16;;;14.21;63.68
72689;BME280;61053;52.166;4.506;2022-09-19T07:00:34;102086.34;;;14.55;62.54
72689;BME280;61053;52.166;4.506;2022-09-19T07:03:08;102096.53;;;14.50;63.14
72689;BME280;61053;52.166;4.506;2022-09-19T07:05:39;102098.16;;;14.53;63.67
72689;BME280;61053;52.166;4.506;2022-09-19T07:08:07;102089.19;;;14.67;62.47
72689;BME280;61053;52.166;4.506;2022-09-19T07:10:33;102099.97;;;14.52;63.04
72689;BME280;61053;52.166;4.506;2022-09-19T07:13:00;102099.69;;;14.57;63.49
72689;BME280;61053;52.166;4.506;2022-09-19T07:15:36;102095.84;;;14.47;64.30
72689;BME280;61053;52.166;4.506;2022-09-19T07:18:02;102097.53;;;14.35;66.00
72689;BME280;61053;52.166;4.506;2022-09-19T07:20:28;102101.81;;;14.25;67.46
72689;BME280;61053;52.166;4.506;2022-09-19T07:23:22;102099.56;;;14.31;64.15
72689;BME280;61053;52.166;4.506;2022-09-19T07:25:46;102110.88;;;14.36;64.70
72689;BME280;61053;52.166;4.506;2022-09-19T07:28:16;102113.63;;;14.22;64.42
72689;BME280;61053;52.166;4.506;2022-09-19T07:30:44;102110.56;;;14.14;63.75
72689;BME280;61053;52.166;4.506;2022-09-19T07:33:13;102101.91;;;14.23;62.99
72689;BME280;61053;52.166;4.506;2022-09-19T07:35:42;102109.81;;;14.12;64.14
72689;BME280;61053;52.166;4.506;2022-09-19T07:38:19;102113.53;;;14.24;63.18
72689;BME280;61053;52.166;4.506;2022-09-19T07:40:46;102118.94;;;14.36;63.17
72689;BME280;61053;52.166;4.506;2022-09-19T07:43:13;102108.63;;;14.57;62.52
72689;BME280;61053;52.166;4.506;2022-09-19T07:45:45;102120.53;;;14.81;61.52
72689;BME280;61053;52.166;4.506;2022-09-19T07:48:12;102114.41;;;15.17;59.10
72689;BME280;61053;52.166;4.506;2022-09-19T07:50:39;102117.00;;;15.18;57.62
72689;BME280;61053;52.166;4.506;2022-09-19T07:53:08;102117.44;;;15.12;58.26
72689;BME280;61053;52.166;4.506;2022-09-19T07:55:35;102123.88;;;14.97;59.93
72689;BME280;61053;52.166;4.506;2022-09-19T07:58:02;102124.84;;;14.96;57.73
72689;BME280;61053;52.166;4.506;2022-09-19T08:00:30;102122.91;;;14.85;59.16
72689;BME280;61053;52.166;4.506;2022-09-19T08:03:02;102129.88;;;14.88;59.73
72689;BME280;61053;52.166;4.506;2022-09-19T08:05:36;102128.09;;;15.14;58.31
72689;BME280;61053;52.166;4.506;2022-09-19T08:08:05;102133.97;;;14.93;59.19
72689;BME280;61053;52.166;4.506;2022-09-19T08:10:31;102138.28;;;14.83;59.54
72689;BME280;61053;52.166;4.506;2022-09-19T08:13:05;102138.06;;;14.86;59.91
72689;BME280;61053;52.166;4.506;2022-09-19T08:15:32;102144.63;;;14.82;61.01
72689;BME280;61053;52.166;4.506;2022-09-19T08:18:05;102145.66;;;14.80;61.30
72689;BME280;61053;52.166;4.506;2022-09-19T08:20:32;102148.72;;;15.01;60.23
72689;BME280;61053;52.166;4.506;2022-09-19T08:23:01;102152.50;;;14.98;59.77
72689;BME280;61053;52.166;4.506;2022-09-19T08:25:34;102156.06;;;14.98;59.83
72689;BME280;61053;52.166;4.506;2022-09-19T08:28:01;102159.31;;;15.16;59.79
72689;BME280;61053;52.166;4.506;2022-09-19T08:30:29;102167.41;;;15.29;59.17
72689;BME280;61053;52.166;4.506;2022-09-19T08:32:55;102170.31;;;15.26;59.32
72689;BME280;61053;52.166;4.506;2022-09-19T08:35:23;102162.13;;;15.28;58.26
72689;BME280;61053;52.166;4.506;2022-09-19T08:37:53;102160.84;;;15.97;56.06
72689;BME280;61053;52.166;4.506;2022-09-19T08:40:25;102169.78;;;15.98;55.42
72689;BME280;61053;52.166;4.506;2022-09-19T08:42:59;102173.13;;;16.01;54.38
72689;BME280;61053;52.166;4.506;2022-09-19T08:51:32;102175.16;;;15.98;54.73
72689;BME280;61053;52.166;4.506;2022-09-19T08:54:15;102173.84;;;16.16;54.38
72689;BME280;61053;52.166;4.506;2022-09-19T08:56:47;102177.53;;;16.02;55.18
72689;BME280;61053;52.166;4.506;2022-09-19T08:59:15;102176.44;;;16.18;55.79
72689;BME280;61053;52.166;4.506;2022-09-19T09:01:42;102172.16;;;16.39;53.75
72689;BME280;61053;52.166;4.506;2022-09-19T09:04:29;102174.28;;;16.47;52.83
72689;BME280;61053;52.166;4.506;2022-09-19T09:10:25;102179.50;;;16.61;52.94
72689;BME280;61053;52.166;4.506;2022-09-19T09:16:40;102174.44;;;16.20;52.79
72689;BME280;61053;52.166;4.506;2022-09-19T09:24:46;102190.56;;;16.09;54.18
72689;BME280;61053;52.166;4.506;2022-09-19T09:27:21;102181.06;;;16.03;54.37
72689;BME280;61053;52.166;4.506;2022-09-19T09:29:56;102185.03;;;16.23;54.33
72689;BME280;61053;52.166;4.506;2022-09-19T09:32:43;102184.47;;;16.31;53.49
72689;BME280;61053;52.166;4.506;2022-09-19T09:35:28;102184.81;;;16.50;52.66
72689;BME280;61053;52.166;4.506;2022-09-19T09:38:19;102178.03;;;16.81;51.55
72689;BME280;61053;52.166;4.506;2022-09-19T09:49:27;102185.84;;;15.99;54.94
72689;BME280;61053;52.166;4.506;2022-09-19T09:58:32;102186.38;;;15.92;52.07
72689;BME280;61053;52.166;4.506;2022-09-19T10:01:43;102183.72;;;16.29;52.11
72689;BME280;61053;52.166;4.506;2022-09-19T10:04:38;102190.50;;;16.34;52.27
72689;BME280;61053;52.166;4.506;2022-09-19T10:10:00;102195.66;;;16.37;52.24
72689;BME280;61053;52.166;4.506;2022-09-19T10:12:44;102194.13;;;16.46;51.10
72689;BME280;61053;52.166;4.506;2022-09-19T10:15:25;102198.69;;;16.70;51.82
72689;BME280;61053;52.166;4.506;2022-09-19T10:18:02;102194.41;;;16.54;50.32
72689;BME280;61053;52.166;4.506;2022-09-19T10:20:36;102193.75;;;16.87;50.15
72689;BME280;61053;52.166;4.506;2022-09-19T10:23:04;102189.59;;;16.95;51.10
72689;BME280;61053;52.166;4.506;2022-09-19T10:25:35;102196.03;;;17.05;49.01
72689;BME280;61053;52.166;4.506;2022-09-19T10:28:26;102193.69;;;17.47;49.99
72689;BME280;61053;52.166;4.506;2022-09-19T10:31:22;102197.13;;;17.38;50.20
72689;BME280;61053;52.166;4.506;2022-09-19T10:34:00;102205.19;;;17.84;49.74
72689;BME280;61053;52.166;4.506;2022-09-19T10:36:33;102197.84;;;17.86;50.26
72689;BME280;61053;52.166;4.506;2022-09-19T10:39:15;102198.88;;;19.16;47.33
72689;BME280;61053;52.166;4.506;2022-09-19T10:41:44;102189.88;;;19.78;45.74
72689;BME280;61053;52.166;4.506;2022-09-19T10:44:30;102191.84;;;23.11;39.13
72689;BME280;61053;52.166;4.506;2022-09-19T10:46:58;102193.81;;;24.48;37.32
72689;BME280;61053;52.166;4.506;2022-09-19T10:49:31;102195.00;;;24.53;36.42
72689;BME280;61053;52.166;4.506;2022-09-19T10:52:03;102195.97;;;23.93;37.74
72689;BME280;61053;52.166;4.506;2022-09-19T10:54:33;102197.66;;;24.29;37.22
72689;BME280;61053;52.166;4.506;2022-09-19T10:57:06;102195.72;;;23.78;37.15
72689;BME280;61053;52.166;4.506;2022-09-19T10:59:54;102208.47;;;22.17;40.83
72689;BME280;61053;52.166;4.506;2022-09-19T11:02:24;102199.44;;;21.88;40.64
72689;BME280;61053;52.166;4.506;2022-09-19T11:05:01;102205.00;;;21.97;41.03
72689;BME280;61053;52.166;4.506;2022-09-19T11:07:31;102197.91;;;23.23;39.63
72689;BME280;61053;52.166;4.506;2022-09-19T11:10:39;102205.38;;;26.05;34.80
72689;BME280;61053;52.166;4.506;2022-09-19T11:21:35;102195.38;;;24.16;37.97
72689;BME280;61053;52.166;4.506;2022-09-19T11:29:37;102206.56;;;21.62;43.36
72689;BME280;61053;52.166;4.506;2022-09-19T11:32:34;102210.19;;;21.04;45.42
72689;BME280;61053;52.166;4.506;2022-09-19T11:35:22;102207.81;;;21.67;43.46
72689;BME280;61053;52.166;4.506;2022-09-19T11:38:12;102212.66;;;23.90;38.48
72689;BME280;61053;52.166;4.506;2022-09-19T11:56:24;102223.53;;;22.21;42.61
72689;BME280;61053;52.166;4.506;2022-09-19T12:08:26;102220.06;;;22.19;42.98
72689;BME280;61053;52.166;4.506;2022-09-19T12:11:06;102220.81;;;22.48;43.23
72689;BME280;61053;52.166;4.506;2022-09-19T12:13:39;102207.63;;;23.25;41.14
72689;BME280;61053;52.166;4.506;2022-09-19T12:16:17;102221.47;;;24.10;39.17
72689;BME280;61053;52.166;4.506;2022-09-19T12:18:58;102221.50;;;24.18;38.73
72689;BME280;61053;52.166;4.506;2022-09-19T12:21:34;102206.19;;;26.53;34.29
72689;BME280;61053;52.166;4.506;2022-09-19T12:24:16;102212.28;;;26.32;33.35
72689;BME280;61053;52.166;4.506;2022-09-19T12:30:20;102213.97;;;22.80;40.26
72689;BME280;61053;52.166;4.506;2022-09-19T12:32:59;102207.25;;;22.39;39.97
72689;BME280;61053;52.166;4.506;2022-09-19T12:35:53;102202.09;;;22.81;40.03
72689;BME280;61053;52.166;4.506;2022-09-19T12:38:37;102205.31;;;23.65;39.52
72689;BME280;61053;52.166;4.506;2022-09-19T12:44:16;102209.94;;;28.85;31.81
72689;BME280;61053;52.166;4.506;2022-09-19T12:47:37;102210.72;;;32.01;27.40
72689;BME280;61053;52.166;4.506;2022-09-19T12:50:29;102213.81;;;33.52;24.83
72689;BME280;61053;52.166;4.506;2022-09-19T12:53:08;102200.50;;;30.48;27.59
72689;BME280;61053;52.166;4.506;2022-09-19T12:55:44;102196.22;;;29.63;29.42
72689;BME280;61053;52.166;4.506;2022-09-19T12:58:19;102212.28;;;31.70;26.09
72689;BME280;61053;52.166;4.506;2022-09-19T13:04:25;102203.56;;;27.82;32.92
72689;BME280;61053;52.166;4.506;2022-09-19T13:10:44;102217.75;;;23.85;43.74
72689;BME280;61053;52.166;4.506;2022-09-19T13:15:59;102232.34;;;21.48;49.78
72689;BME280;61053;52.166;4.506;2022-09-19T13:18:30;102230.03;;;20.56;54.28
72689;BME280;61053;52.166;4.506;2022-09-19T13:21:16;102221.41;;;20.10;57.33
72689;BME280;61053;52.166;4.506;2022-09-19T13:27:12;102221.19;;;20.73;55.83
72689;BME280;61053;52.166;4.506;2022-09-19T13:35:22;102209.63;;;26.08;43.05
72689;BME280;61053;52.166;4.506;2022-09-19T13:37:49;102212.91;;;26.43;40.07
72689;BME280;61053;52.166;4.506;2022-09-19T13:40:45;102210.38;;;26.02;39.17
72689;BME280;61053;52.166;4.506;2022-09-19T13:43:27;102213.06;;;27.42;36.48
72689;BME280;61053;52.166;4.506;2022-09-19T13:46:13;102214.75;;;30.65;30.97
72689;BME280;61053;52.166;4.506;2022-09-19T13:49:00;102216.84;;;28.45;34.53
72689;BME280;61053;52.166;4.506;2022-09-19T13:51:40;102217.31;;;26.52;36.83
72689;BME280;61053;52.166;4.506;2022-09-19T13:59:31;102217.13;;;29.79;31.27
72689;BME280;61053;52.166;4.506;2022-09-19T14:04:57;102220.53;;;27.86;33.38
72689;BME280;61053;52.166;4.506;2022-09-19T14:07:36;102219.06;;;26.14;36.11
72689;BME280;61053;52.166;4.506;2022-09-19T14:21:11;102225.22;;;22.31;41.06
72689;BME280;61053;52.166;4.506;2022-09-19T14:25:02;102221.34;;;21.01;42.76
72689;BME280;61053;52.166;4.506;2022-09-19T14:27:27;102226.03;;;20.70;44.09
72689;BME280;61053;52.166;4.506;2022-09-19T14:30:26;102233.94;;;20.32;46.53
72689;BME280;61053;52.166;4.506;2022-09-19T14:35:56;102223.44;;;19.87;47.25
72689;BME280;61053;52.166;4.506;2022-09-19T14:47:10;102225.66;;;20.43;46.53
72689;BME280;61053;52.166;4.506;2022-09-19T14:50:11;102217.75;;;20.21;46.75
72689;BME280;61053;52.166;4.506;2022-09-19T14:52:50;102218.63;;;20.31;45.24
72689;BME280;61053;52.166;4.506;2022-09-19T14:55:26;102220.09;;;20.45;45.65
72689;BME280;61053;52.166;4.506;2022-09-19T14:57:52;102215.56;;;20.15;45.58
72689;BME280;61053;52.166;4.506;2022-09-19T15:00:28;102219.47;;;19.91;47.53
72689;BME280;61053;52.166;4.506;2022-09-19T15:02:59;102219.84;;;19.77;48.60
72689;BME280;61053;52.166;4.506;2022-09-19T15:05:33;102224.13;;;19.37;49.43
72689;BME280;61053;52.166;4.506;2022-09-19T15:08:26;102223.22;;;18.95;49.59
72689;BME280;61053;52.166;4.506;2022-09-19T15:11:01;102220.00;;;19.01;48.88
72689;BME280;61053;52.166;4.506;2022-09-19T15:13:30;102214.38;;;18.93;50.61
72689;BME280;61053;52.166;4.506;2022-09-19T15:16:04;102218.91;;;19.25;49.96
72689;BME280;61053;52.166;4.506;2022-09-19T15:18:46;102222.66;;;19.33;49.20
72689;BME280;61053;52.166;4.506;2022-09-19T15:21:20;102222.72;;;19.22;49.24
72689;BME280;61053;52.166;4.506;2022-09-19T15:23:50;102229.44;;;19.39;47.84
72689;BME280;61053;52.166;4.506;2022-09-19T15:26:23;102229.94;;;19.33;47.48
72689;BME280;61053;52.166;4.506;2022-09-19T15:28:58;102231.44;;;19.05;47.46
72689;BME280;61053;52.166;4.506;2022-09-19T15:31:45;102229.97;;;19.01;47.83
72689;BME280;61053;52.166;4.506;2022-09-19T15:34:16;102236.41;;;19.21;48.46
72689;BME280;61053;52.166;4.506;2022-09-19T15:36:44;102239.81;;;19.34;48.60
72689;BME280;61053;52.166;4.506;2022-09-19T15:39:12;102234.22;;;19.35;47.46
72689;BME280;61053;52.166;4.506;2022-09-19T15:41:40;102234.09;;;19.16;48.20
72689;BME280;61053;52.166;4.506;2022-09-19T15:44:23;102239.66;;;19.35;48.11
72689;BME280;61053;52.166;4.506;2022-09-19T15:46:51;102232.88;;;19.41;47.54
72689;BME280;61053;52.166;4.506;2022-09-19T15:49:29;102229.22;;;18.98;49.10
72689;BME280;61053;52.166;4.506;2022-09-19T15:52:07;102228.31;;;18.66;49.83
72689;BME280;61053;52.166;4.506;2022-09-19T15:54:46;102228.09;;;18.69;48.67
72689;BME280;61053;52.166;4.506;2022-09-19T15:57:44;102224.38;;;18.81;48.95
72689;BME280;61053;52.166;4.506;2022-09-19T16:00:21;102227.47;;;18.65;48.60
72689;BME280;61053;52.166;4.506;2022-09-19T16:02:52;102232.59;;;18.13;49.75
72689;BME280;61053;52.166;4.506;2022-09-19T16:05:29;102224.59;;;18.23;50.48
72689;BME280;61053;52.166;4.506;2022-09-19T16:07:59;102229.28;;;18.10;49.92